Time;durP1;ratioP1;P1;durP2;ratioP2;P2;SDS_P1;SDS_P2;PMS_P1;PMS_P2;Temp;Humidity;BMP_temperature;BMP_pressure;BME280_temperature;BME280_humidity;BME280_pressure;Samples;Min_cycle;Max_cycle;Signal;HPM_P1;HPM_P2
2023/04/07 00:01:39;;;;;;;19.02;10.00;;;;;;;11.06;36.80;100831.78;4976288;28;20039;-79
2023/04/07 00:04:34;;;;;;;40.43;16.10;;;;;;;11.04;36.56;100825.03;4984095;28;20043;-80
2023/04/07 00:07:28;;;;;;;23.70;10.63;;;;;;;11.05;36.50;100819.28;4984457;28;20042;-80
2023/04/07 00:10:23;;;;;;;21.67;10.27;;;;;;;10.99;36.84;100817.81;5001086;28;20043;-79
2023/04/07 00:13:18;;;;;;;16.67;9.52;;;;;;;11.03;37.10;100815.25;4984086;28;20046;-81
2023/04/07 00:16:12;;;;;;;17.53;10.27;;;;;;;10.99;37.26;100812.38;4983774;28;20045;-81
2023/04/07 00:19:07;;;;;;;15.63;9.87;;;;;;;10.89;37.28;100812.66;4998905;28;20062;-80
2023/04/07 00:22:02;;;;;;;18.90;10.82;;;;;;;10.93;37.62;100827.22;4987996;28;20273;-80
2023/04/07 00:24:56;;;;;;;19.15;10.65;;;;;;;10.90;38.04;100819.72;4983498;28;20046;-81
2023/04/07 00:27:51;;;;;;;20.42;10.85;;;;;;;10.80;38.71;100814.56;4982640;28;20046;-81
2023/04/07 00:30:43;;;;;;;17.65;10.07;;;;;;;10.84;38.37;100810.09;4984810;28;20035;-81
2023/04/07 00:33:37;;;;;;;23.60;10.23;;;;;;;10.85;38.41;100816.31;4983207;28;20043;-81
2023/04/07 00:36:31;;;;;;;32.03;12.05;;;;;;;10.85;38.38;100811.69;4997045;28;20046;-80
2023/04/07 00:39:26;;;;;;;24.98;10.10;;;;;;;10.90;38.16;100821.63;4966148;28;20042;-80
2023/04/07 00:42:18;;;;;;;20.17;10.93;;;;;;;10.90;38.13;100810.75;4980230;28;20042;-80
2023/04/07 00:45:12;;;;;;;20.98;11.70;;;;;;;10.84;38.03;100815.53;4984512;28;20039;-80
2023/04/07 00:48:07;;;;;;;20.90;11.20;;;;;;;10.81;38.33;100810.72;4981308;28;20039;-79
2023/04/07 00:51:02;;;;;;;14.82;8.63;;;;;;;10.91;38.32;100804.19;4980389;28;20042;-80
2023/04/07 00:53:54;;;;;;;22.33;10.83;;;;;;;10.85;38.51;100802.72;4992946;28;20045;-78
2023/04/07 00:56:48;;;;;;;18.88;10.45;;;;;;;10.90;38.13;100802.59;4986227;28;20039;-79
2023/04/07 00:59:43;;;;;;;16.77;8.45;;;;;;;10.87;38.53;100803.22;4978984;28;20043;-80
2023/04/07 01:03:05;;;;;;;13.60;8.35;;;;;;;10.84;38.95;100803.84;4979881;28;20115;-79
2023/04/07 01:06:06;;;;;;;21.98;10.98;;;;;;;10.79;39.59;100795.81;4990586;28;20057;-80
2023/04/07 01:09:06;;;;;;;20.20;10.80;;;;;;;10.78;39.88;100789.56;4976425;28;20039;-78
2023/04/07 01:12:04;;;;;;;23.05;11.23;;;;;;;10.78;39.58;100797.72;4981306;28;20035;-79
2023/04/07 01:15:01;;;;;;;19.70;10.35;;;;;;;10.61;40.55;100790.31;4979562;28;20042;-80
2023/04/07 01:18:14;;;;;;;16.50;11.55;;;;;;;10.61;40.74;100786.81;4967414;28;20043;-78
2023/04/07 01:21:10;;;;;;;22.65;12.40;;;;;;;10.59;40.71;100792.53;4989808;28;20046;-79
2023/04/07 01:24:21;;;;;;;18.88;10.57;;;;;;;10.66;40.58;100792.09;4975743;28;20043;-81
2023/04/07 01:27:26;;;;;;;21.05;11.23;;;;;;;10.41;41.18;100788.16;4977804;28;20038;-78
2023/04/07 01:30:23;;;;;;;16.70;11.07;;;;;;;10.56;40.99;100797.81;4976001;28;20039;-79
2023/04/07 01:33:20;;;;;;;19.35;11.27;;;;;;;10.59;40.85;100792.53;4992418;28;20051;-80
2023/04/07 01:36:13;;;;;;;19.00;11.73;;;;;;;10.70;40.55;100793.06;4975450;28;20517;-79
2023/04/07 01:39:10;;;;;;;23.40;12.10;;;;;;;10.68;40.98;100796.09;4975424;28;20047;-80
2023/04/07 01:42:06;;;;;;;18.70;11.15;;;;;;;10.53;40.98;100793.00;4989779;28;20039;-79
2023/04/07 01:45:00;;;;;;;26.98;10.38;;;;;;;10.58;41.12;100787.41;4979830;28;20051;-79
2023/04/07 01:47:55;;;;;;;21.05;10.85;;;;;;;10.57;40.96;100789.31;4977478;28;20037;-79
2023/04/07 01:50:50;;;;;;;19.30;10.60;;;;;;;10.50;41.22;100788.19;4986923;28;20042;-78
2023/04/07 01:53:45;;;;;;;16.60;10.18;;;;;;;10.50;41.27;100790.91;4978681;28;20035;-78
2023/04/07 01:56:39;;;;;;;23.48;9.82;;;;;;;10.48;41.32;100787.69;4976185;28;20043;-78
2023/04/07 01:59:34;;;;;;;18.00;10.30;;;;;;;10.44;41.33;100786.72;4973347;28;20058;-78
2023/04/07 02:02:28;;;;;;;22.37;10.23;;;;;;;10.46;41.07;100788.00;4964795;28;20043;-79
2023/04/07 02:05:25;;;;;;;22.92;10.05;;;;;;;10.36;41.43;100787.47;4977743;28;20409;-79
2023/04/07 02:08:17;;;;;;;13.15;8.82;;;;;;;10.38;40.91;100782.50;4977231;28;20035;-78
2023/04/07 02:11:14;;;;;;;21.30;9.98;;;;;;;10.28;41.33;100784.38;4982032;28;20046;-78
2023/04/07 02:14:10;;;;;;;20.13;10.40;;;;;;;10.24;41.62;100791.56;4975486;28;20042;-77
2023/04/07 02:17:23;;;;;;;16.45;9.77;;;;;;;10.22;41.43;100787.53;4981045;28;20038;-78
2023/04/07 02:20:19;;;;;;;18.38;10.15;;;;;;;10.36;41.11;100785.56;4975879;28;20073;-78
2023/04/07 02:23:12;;;;;;;14.50;9.68;;;;;;;10.36;40.72;100777.41;4976481;28;20039;-78
2023/04/07 02:26:07;;;;;;;16.33;10.05;;;;;;;10.38;40.86;100790.66;4991071;28;20050;-78
2023/04/07 02:28:59;;;;;;;20.83;9.60;;;;;;;10.22;41.34;100788.34;4975370;28;20039;-78
2023/04/07 02:31:51;;;;;;;21.63;10.05;;;;;;;10.23;41.33;100792.69;4978027;28;20093;-78
2023/04/07 02:34:46;;;;;;;20.55;9.70;;;;;;;10.18;41.71;100789.28;4989523;28;20035;-78
2023/04/07 02:37:40;;;;;;;19.15;9.30;;;;;;;10.17;41.09;100783.03;4979238;28;20065;-78
2023/04/07 02:40:35;;;;;;;18.75;10.55;;;;;;;10.27;40.81;100785.50;4977090;28;20414;-77
2023/04/07 02:43:30;;;;;;;16.70;9.90;;;;;;;10.16;41.13;100784.16;4979874;28;20043;-78
2023/04/07 02:46:24;;;;;;;15.98;9.57;;;;;;;10.10;41.14;100790.00;4988046;28;20066;-78
2023/04/07 02:49:19;;;;;;;17.40;9.67;;;;;;;10.09;41.24;100783.78;4975862;28;20050;-78
2023/04/07 02:52:13;;;;;;;17.65;9.45;;;;;;;10.26;40.65;100783.88;4978648;28;20066;-77
2023/04/07 02:55:08;;;;;;;18.90;9.87;;;;;;;10.33;40.42;100782.66;4976865;28;20513;-78
2023/04/07 02:58:03;;;;;;;16.13;8.95;;;;;;;10.21;40.18;100778.59;4978550;28;20046;-78
2023/04/07 03:01:03;;;;;;;17.65;9.80;;;;;;;10.24;40.16;100785.31;4976931;28;20045;-78
2023/04/07 03:03:58;;;;;;;9.07;6.40;;;;;;;10.22;40.07;100777.47;4975219;28;20041;-78
2023/04/07 03:06:52;;;;;;;17.63;9.10;;;;;;;10.24;40.16;100771.75;4978227;28;20042;-78
2023/04/07 03:09:47;;;;;;;16.98;8.95;;;;;;;10.18;39.91;100773.78;4978981;28;20050;-80
2023/04/07 03:12:42;;;;;;;13.10;7.90;;;;;;;10.17;39.90;100780.31;4989977;28;20049;-79
2023/04/07 03:15:34;;;;;;;17.50;10.18;;;;;;;10.22;39.81;100782.09;4985663;28;20038;-80
2023/04/07 03:18:29;;;;;;;16.23;9.75;;;;;;;10.18;39.82;100784.66;4982765;28;20047;-80
2023/04/07 03:21:23;;;;;;;15.55;9.32;;;;;;;10.31;39.56;100772.06;4982453;28;20529;-80
2023/04/07 03:24:18;;;;;;;16.13;9.45;;;;;;;10.19;39.49;100775.41;4984358;28;20050;-80
2023/04/07 03:27:10;;;;;;;18.20;10.27;;;;;;;10.05;39.76;100771.94;4982046;28;20110;-80
2023/04/07 03:30:14;;;;;;;14.63;8.93;;;;;;;10.04;40.01;100767.59;4971487;28;20046;-80
2023/04/07 03:33:09;;;;;;;19.25;7.45;;;;;;;9.99;40.17;100767.72;4982033;28;20046;-79
2023/04/07 03:36:01;;;;;;;17.23;11.23;;;;;;;9.90;40.36;100758.72;4986284;28;20046;-80
2023/04/07 03:38:53;;;;;;;16.23;9.02;;;;;;;9.92;39.83;100764.63;4981858;28;20050;-80
2023/04/07 03:41:48;;;;;;;18.10;9.52;;;;;;;9.92;39.90;100769.25;4986792;28;20050;-79
2023/04/07 03:44:40;;;;;;;16.27;9.77;;;;;;;9.94;40.01;100770.56;4981850;28;20045;-80
2023/04/07 03:47:35;;;;;;;15.32;7.70;;;;;;;10.00;39.77;100772.06;4982048;28;20049;-79
2023/04/07 03:50:30;;;;;;;17.20;11.23;;;;;;;9.93;40.08;100768.16;4984515;28;20410;-79
2023/04/07 03:53:32;;;;;;;24.42;10.07;;;;;;;9.86;40.12;100763.16;4981909;28;20050;-79
2023/04/07 03:56:28;;;;;;;22.20;10.32;;;;;;;9.78;40.50;100753.84;4985424;28;20042;-80
2023/04/07 03:59:23;;;;;;;25.10;10.07;;;;;;;9.68;40.18;100762.22;4980410;28;20058;-79
2023/04/07 04:02:24;;;;;;;20.65;9.93;;;;;;;9.84;39.76;100768.09;4979350;28;20281;-79
2023/04/07 04:05:19;;;;;;;12.35;7.25;;;;;;;9.70;39.97;100760.00;4969760;28;20050;-80
2023/04/07 04:08:14;;;;;;;18.77;9.07;;;;;;;9.75;40.26;100767.25;4966975;28;20046;-79
2023/04/07 04:11:08;;;;;;;15.30;7.83;;;;;;;9.71;40.33;100760.78;4984521;28;20050;-78
2023/04/07 04:14:06;;;;;;;24.88;11.77;;;;;;;9.71;40.47;100755.38;4977550;28;20426;-78
2023/04/07 04:17:01;;;;;;;22.50;9.80;;;;;;;9.69;40.51;100768.47;4977398;28;20053;-80
2023/04/07 04:19:59;;;;;;;19.15;9.80;;;;;;;9.60;40.33;100762.94;4980815;28;20568;-78
2023/04/07 04:23:03;;;;;;;16.45;9.63;;;;;;;9.61;40.72;100763.75;4965111;28;20521;-79
2023/04/07 04:25:58;;;;;;;12.38;7.55;;;;;;;9.50;40.58;100760.47;4979355;28;20077;-79
2023/04/07 04:28:53;;;;;;;16.05;7.18;;;;;;;9.49;40.29;100755.38;4978014;28;20045;-79
2023/04/07 04:31:48;;;;;;;27.08;10.13;;;;;;;9.40;41.12;100766.94;4976141;28;20046;-78
2023/04/07 04:34:40;;;;;;;24.67;9.50;;;;;;;9.41;40.69;100768.53;4965171;28;20077;-80
2023/04/07 04:37:35;;;;;;;23.73;10.68;;;;;;;9.35;40.99;100768.97;4963380;28;20050;-78
2023/04/07 04:40:30;;;;;;;19.48;10.43;;;;;;;9.34;40.75;100760.03;4979327;28;20046;-78
2023/04/07 04:43:25;;;;;;;12.57;8.50;;;;;;;9.37;40.82;100758.59;4976587;28;20041;-79
2023/04/07 04:46:20;;;;;;;15.90;9.38;;;;;;;9.29;40.78;100762.88;4959373;28;20115;-79
2023/04/07 04:49:14;;;;;;;13.85;6.57;;;;;;;9.33;40.56;100768.47;4956245;28;20054;-78
2023/04/07 04:52:09;;;;;;;25.20;10.73;;;;;;;9.26;40.89;100770.78;4957475;28;20057;-79
2023/04/07 04:55:03;;;;;;;24.00;10.18;;;;;;;9.26;41.69;100770.78;4960506;28;20510;-78
2023/04/07 04:57:58;;;;;;;21.55;10.15;;;;;;;9.23;40.93;100780.34;4964527;28;20045;-79
2023/04/07 05:01:01;;;;;;;18.63;10.48;;;;;;;9.37;40.68;100778.41;4964292;28;20533;-80
2023/04/07 05:04:02;;;;;;;16.10;9.80;;;;;;;9.32;40.81;100772.28;4969794;28;20426;-80
2023/04/07 05:06:57;;;;;;;16.42;9.27;;;;;;;9.26;40.67;100768.09;4958055;28;20054;-78
2023/04/07 05:09:53;;;;;;;21.98;10.50;;;;;;;9.34;40.70;100770.91;4972352;28;20058;-78
2023/04/07 05:12:47;;;;;;;21.48;10.40;;;;;;;9.27;40.66;100756.94;4975215;28;20050;-79
2023/04/07 05:15:42;;;;;;;27.43;10.73;;;;;;;9.20;41.34;100761.97;4978514;28;20050;-79
2023/04/07 05:18:37;;;;;;;21.13;9.98;;;;;;;9.07;41.62;100765.50;4975923;28;20050;-79
2023/04/07 05:21:31;;;;;;;26.45;10.65;;;;;;;9.08;42.08;100766.31;4960709;28;20045;-79
2023/04/07 05:24:27;;;;;;;16.88;9.38;;;;;;;9.15;41.75;100767.50;4977462;28;20046;-80
2023/04/07 05:27:22;;;;;;;20.88;8.65;;;;;;;9.13;42.13;100767.00;4975028;28;20524;-77
2023/04/07 05:30:19;;;;;;;21.38;10.15;;;;;;;9.12;42.16;100759.97;4977883;28;20042;-79
2023/04/07 05:33:13;;;;;;;22.48;9.25;;;;;;;9.22;42.47;100758.94;4974620;28;20045;-79
2023/04/07 05:36:12;;;;;;;31.50;11.73;;;;;;;9.25;42.43;100756.41;4954541;28;20438;-80
2023/04/07 05:39:05;;;;;;;30.40;11.00;;;;;;;9.33;42.42;100746.78;4975269;28;20065;-80
2023/04/07 05:42:00;;;;;;;25.70;10.50;;;;;;;9.40;42.40;100752.56;4977171;28;20041;-81
2023/04/07 05:44:54;;;;;;;14.50;8.63;;;;;;;9.47;42.58;100754.84;4984082;28;20422;-80
2023/04/07 05:47:49;;;;;;;26.45;11.65;;;;;;;9.50;42.73;100748.84;4959477;28;20054;-79
2023/04/07 05:50:42;;;;;;;27.83;9.48;;;;;;;9.41;42.78;100749.53;4975609;28;20050;-78
2023/04/07 05:53:38;;;;;;;23.25;10.73;;;;;;;9.58;41.87;100751.63;4979454;28;20046;-78
2023/04/07 05:56:33;;;;;;;14.95;6.82;;;;;;;9.71;41.24;100750.75;4976577;28;20046;-79
2023/04/07 05:59:27;;;;;;;21.65;9.98;;;;;;;9.93;40.96;100752.66;4954300;28;20062;-79
2023/04/07 06:02:22;;;;;;;25.67;10.30;;;;;;;10.09;40.99;100742.22;4978109;28;20058;-79
2023/04/07 06:05:14;;;;;;;25.25;10.15;;;;;;;10.25;40.37;100749.69;4975497;28;20043;-80
2023/04/07 06:08:06;;;;;;;28.30;11.75;;;;;;;10.32;40.67;100751.13;4965785;28;20051;-78
2023/04/07 06:11:01;;;;;;;25.48;11.25;;;;;;;10.46;40.47;100744.53;4950472;28;20483;-79
2023/04/07 06:13:55;;;;;;;24.15;10.00;;;;;;;10.53;40.06;100749.47;4970554;28;20046;-79
2023/04/07 06:16:50;;;;;;;23.30;10.75;;;;;;;10.67;39.91;100745.53;4976121;28;20031;-80
2023/04/07 06:19:45;;;;;;;30.25;11.25;;;;;;;10.84;39.45;100744.78;4975550;28;20046;-79
2023/04/07 06:22:39;;;;;;;24.30;11.48;;;;;;;10.92;39.09;100744.00;4978872;28;20038;-81
2023/04/07 06:25:34;;;;;;;28.07;11.30;;;;;;;10.93;39.63;100747.53;4963561;28;20047;-79
2023/04/07 06:28:28;;;;;;;22.65;10.05;;;;;;;11.04;39.84;100752.38;4977922;28;20042;-81
2023/04/07 06:31:23;;;;;;;19.67;11.52;;;;;;;11.12;40.04;100756.25;4976841;28;20035;-81
2023/04/07 06:34:20;;;;;;;18.13;10.93;;;;;;;11.21;40.59;100753.53;4960346;28;20043;-81
2023/04/07 06:37:15;;;;;;;20.08;8.77;;;;;;;11.47;42.67;100757.06;4974628;28;20035;-81
2023/04/07 06:40:10;;;;;;;26.23;10.27;;;;;;;11.46;41.10;100750.03;4967367;28;20061;-81
2023/04/07 06:43:02;;;;;;;;;;;;;;;11.63;40.45;100760.88;4975355;28;20038;-81
2023/04/07 06:46:08;;;;;;;25.73;9.45;;;;;;;11.82;40.98;100766.88;4959208;28;19918;-81
2023/04/07 06:49:02;;;;;;;24.90;10.35;;;;;;;11.98;40.60;100757.06;4974051;28;20050;-81
2023/04/07 06:51:55;;;;;;;22.00;11.90;;;;;;;12.10;38.91;100758.31;4971484;28;20410;-77
2023/04/07 06:54:50;;;;;;;22.73;9.98;;;;;;;12.20;38.31;100764.22;4983120;28;20035;-84
2023/04/07 06:57:42;;;;;;;19.98;10.88;;;;;;;12.27;38.67;100763.72;4971128;28;20058;-81
2023/04/07 07:00:34;;;;;;;18.73;9.93;;;;;;;12.38;37.98;100770.44;4976333;28;20455;-81
2023/04/07 07:03:32;;;;;;;19.20;10.40;;;;;;;12.58;37.26;100763.47;4959155;28;20050;-81
2023/04/07 07:06:26;;;;;;;19.63;11.40;;;;;;;12.55;37.20;100764.91;4968493;28;20043;-82
2023/04/07 07:09:18;;;;;;;26.30;11.82;;;;;;;12.59;36.38;100760.41;4972871;28;20043;-82
2023/04/07 07:12:14;;;;;;;23.73;11.35;;;;;;;12.68;36.27;100763.09;4967351;28;20042;-83
2023/04/07 07:15:06;;;;;;;23.88;11.48;;;;;;;12.86;35.97;100759.16;4982311;28;20043;-83
2023/04/07 07:18:00;;;;;;;16.52;11.23;;;;;;;15.17;33.99;100749.03;4966923;28;20046;-80
2023/04/07 07:20:55;;;;;;;31.67;10.77;;;;;;;17.60;31.89;100753.00;4971953;28;20035;-75
2023/04/07 07:23:50;;;;;;;31.37;11.80;;;;;;;15.10;30.74;100757.00;4974168;28;20502;-74
2023/04/07 07:26:44;;;;;;;24.67;10.53;;;;;;;15.21;35.31;100753.47;4973966;28;20042;-74
2023/04/07 07:29:39;;;;;;;20.17;10.93;;;;;;;14.77;33.59;100743.47;4973936;28;20266;-75
2023/04/07 07:32:33;;;;;;;17.17;8.80;;;;;;;14.11;33.35;100751.78;4961135;28;20038;-76
2023/04/07 07:35:31;;;;;;;29.27;11.45;;;;;;;14.42;34.73;100748.56;4974048;28;20042;-75
2023/04/07 07:38:26;;;;;;;22.88;10.60;;;;;;;13.83;33.65;100750.75;4974028;28;20039;-75
2023/04/07 07:41:21;;;;;;;26.97;12.93;;;;;;;13.92;32.84;100752.28;4970452;28;20050;-75
2023/04/07 07:44:15;;;;;;;22.70;12.33;;;;;;;13.89;32.42;100754.91;4973852;28;20278;-75
2023/04/07 07:47:05;;;;;;;37.28;13.43;;;;;;;13.76;33.49;100759.53;4973725;28;20042;-75
2023/04/07 07:49:59;;;;;;;24.42;12.98;;;;;;;13.54;33.67;100757.94;4973539;28;20411;-75
2023/04/07 07:52:53;;;;;;;16.38;9.68;;;;;;;14.54;32.17;100749.38;4972871;28;20047;-74
2023/04/07 07:55:48;;;;;;;24.10;12.03;;;;;;;16.54;28.78;100756.78;4973085;28;20054;-74
2023/04/07 07:58:40;;;;;;;23.70;11.65;;;;;;;16.37;30.85;100765.34;4968211;28;20039;-73
2023/04/07 08:01:35;;;;;;;40.77;12.33;;;;;;;16.18;31.72;100757.81;4969779;28;20047;-73
2023/04/07 08:04:29;;;;;;;43.70;11.40;;;;;;;16.19;32.39;100760.22;4970948;28;20036;-74
2023/04/07 08:07:24;;;;;;;26.17;12.05;;;;;;;18.72;28.01;100761.78;4953763;28;20039;-74
2023/04/07 08:10:18;;;;;;;19.05;11.35;;;;;;;18.82;25.29;100754.84;4971933;28;20051;-74
2023/04/07 08:13:13;;;;;;;60.67;15.00;;;;;;;18.59;25.39;100752.16;4975828;28;20510;-74
2023/04/07 08:16:08;;;;;;;25.10;16.83;;;;;;;17.64;26.74;100762.91;4973245;28;20266;-75
2023/04/07 08:19:02;;;;;;;28.52;18.05;;;;;;;16.91;29.27;100758.13;4973828;28;20042;-75
2023/04/07 08:21:57;;;;;;;72.15;29.85;;;;;;;16.43;29.13;100766.69;4972841;28;20047;-74
2023/04/07 08:24:49;;;;;;;31.02;16.48;;;;;;;15.30;29.71;100770.56;4971922;28;20034;-73
2023/04/07 08:27:43;;;;;;;27.40;17.38;;;;;;;15.30;30.07;100773.28;4975641;28;20302;-75
2023/04/07 08:30:37;;;;;;;28.55;23.05;;;;;;;15.29;30.49;100768.16;4958511;28;20042;-75
2023/04/07 08:33:32;;;;;;;24.50;13.23;;;;;;;14.49;31.97;100763.28;4973594;28;20047;-74
2023/04/07 08:36:27;;;;;;;20.10;12.80;;;;;;;17.41;28.13;100773.78;4963559;28;20507;-74
2023/04/07 08:39:21;;;;;;;23.10;12.88;;;;;;;18.29;26.26;100772.03;4962149;28;20290;-74
2023/04/07 08:42:16;;;;;;;22.95;13.93;;;;;;;17.83;26.19;100773.09;4963470;28;20038;-75
2023/04/07 08:45:08;;;;;;;42.25;15.55;;;;;;;16.72;28.13;100771.78;4970256;28;20051;-74
2023/04/07 08:48:05;;;;;;;40.50;19.90;;;;;;;16.17;28.43;100768.00;4961036;28;20043;-75
2023/04/07 08:50:58;;;;;;;58.78;28.25;;;;;;;16.36;28.73;100761.00;4965163;28;20042;-75
2023/04/07 08:53:59;;;;;;;105.65;28.95;;;;;;;16.47;29.35;100760.13;4970537;28;20051;-76
2023/04/07 08:56:53;;;;;;;52.10;25.55;;;;;;;15.86;30.09;100762.44;4971966;28;20039;-74
2023/04/07 08:59:47;;;;;;;24.63;15.60;;;;;;;14.29;32.70;100764.13;4971706;28;20407;-74
2023/04/07 09:02:43;;;;;;;24.23;13.35;;;;;;;14.76;30.86;100761.03;4971705;28;20047;-74
2023/04/07 09:05:35;;;;;;;24.02;13.57;;;;;;;15.11;31.07;100756.66;4974609;28;20411;-74
2023/04/07 09:08:30;;;;;;;22.67;14.00;;;;;;;15.26;31.32;100742.25;4959245;28;20046;-74
2023/04/07 09:11:25;;;;;;;28.43;13.57;;;;;;;17.67;27.79;100751.19;4973947;28;20043;-73
2023/04/07 09:14:19;;;;;;;29.47;15.00;;;;;;;16.55;29.24;100750.16;4976647;28;20406;-74
2023/04/07 09:17:13;;;;;;;28.35;13.20;;;;;;;16.19;30.35;100743.75;4976656;28;20046;-74
2023/04/07 09:20:08;;;;;;;23.07;12.33;;;;;;;16.04;30.28;100741.78;4975523;28;20046;-74
2023/04/07 09:23:03;;;;;;;25.77;13.27;;;;;;;15.96;30.64;100744.66;4975489;28;20270;-74
2023/04/07 09:25:52;;;;;;;28.03;14.50;;;;;;;15.96;31.04;100734.50;4975663;28;20043;-73
2023/04/07 09:28:49;;;;;;;77.28;16.42;;;;;;;15.90;30.07;100737.84;4973751;28;20039;-74
2023/04/07 09:31:54;;;;;;;23.63;13.15;;;;;;;15.88;30.26;100721.75;4975139;28;20502;-74
2023/04/07 09:34:48;;;;;;;23.50;14.85;;;;;;;16.47;30.02;100726.41;4978386;28;20038;-73
2023/04/07 09:37:41;;;;;;;124.60;29.70;;;;;;;16.52;27.82;100723.38;4976033;28;20537;-72
2023/04/07 09:40:35;;;;;;;1999.90;999.90;;;;;;;16.05;27.34;100726.91;4978997;28;20047;-72
2023/04/07 09:43:30;;;;;;;1999.90;999.90;;;;;;;15.55;27.57;100726.66;4975191;28;20514;-72
2023/04/07 09:46:24;;;;;;;1999.90;999.90;;;;;;;15.71;27.64;100727.53;4980405;28;20047;-72
2023/04/07 09:49:18;;;;;;;1999.90;999.90;;;;;;;16.89;26.17;100719.22;4956358;28;20043;-73
2023/04/07 09:52:13;;;;;;;1948.38;712.28;;;;;;;16.38;28.08;100723.84;4955283;28;20046;-73
2023/04/07 09:55:09;;;;;;;401.35;104.55;;;;;;;16.05;29.03;100718.66;4960005;28;20039;-72
2023/04/07 09:58:05;;;;;;;1079.43;224.10;;;;;;;15.77;29.24;100715.16;4963640;28;20039;-72
2023/04/07 10:00:57;;;;;;;;;;;;;;;15.54;29.41;100719.63;4959918;28;20055;-71
2023/04/07 10:03:51;;;;;;;324.17;84.60;;;;;;;15.54;28.34;100714.13;4965285;28;19922;-71
2023/04/07 10:06:46;;;;;;;83.10;34.65;;;;;;;16.13;27.45;100705.94;4974300;28;20039;-72
2023/04/07 10:09:38;;;;;;;1999.90;999.90;;;;;;;15.92;26.28;100706.19;4974405;28;20039;-71
2023/04/07 10:12:33;;;;;;;883.93;383.47;;;;;;;16.43;26.01;100698.06;4976244;28;20047;-72
2023/04/07 10:15:28;;;;;;;1999.90;396.00;;;;;;;17.53;24.10;100696.66;4973905;28;20278;-72
2023/04/07 10:18:24;;;;;;;1199.73;569.43;;;;;;;17.93;24.33;100704.53;4975246;28;20518;-72
2023/04/07 10:21:17;;;;;;;910.83;493.17;;;;;;;17.49;24.87;100692.25;4974863;28;20266;-72
2023/04/07 10:24:35;;;;;;;64.28;57.22;;;;;;;17.24;24.17;100690.94;4971144;28;20058;-72
2023/04/07 10:27:48;;;;;;;23.52;12.00;;;;;;;16.66;24.47;100699.84;4972782;28;20046;-72
2023/04/07 10:30:44;;;;;;;19.65;13.52;;;;;;;16.75;25.45;100694.19;4976903;28;20039;-72
2023/04/07 10:33:55;;;;;;;28.98;18.90;;;;;;;16.26;26.42;100693.72;4975297;28;20043;-72
2023/04/07 10:37:12;;;;;;;1544.85;620.78;;;;;;;16.00;27.06;100688.75;4974809;28;20042;-73
2023/04/07 10:40:25;;;;;;;1807.63;711.05;;;;;;;16.23;26.82;100683.47;4973524;28;20043;-72
2023/04/07 10:43:40;;;;;;;1052.63;512.53;;;;;;;16.45;26.86;100684.81;4974798;28;20047;-73
2023/04/07 10:47:05;;;;;;;1999.90;967.90;;;;;;;16.63;25.92;100678.59;4974460;28;20039;-72
2023/04/07 10:50:29;;;;;;;1999.90;434.95;;;;;;;17.04;27.21;100684.63;4972557;28;20047;-74
2023/04/07 10:53:24;;;;;;;84.50;76.30;;;;;;;17.08;25.99;100678.03;4964678;28;20043;-73
2023/04/07 10:56:16;;;;;;;22.47;12.87;;;;;;;16.59;25.78;100671.44;4973137;28;20066;-74
2023/04/07 10:59:18;;;;;;;21.92;11.73;;;;;;;16.23;26.11;100667.81;4971749;28;20042;-74
2023/04/07 11:02:16;;;;;;;22.23;12.05;;;;;;;15.94;26.54;100675.66;4974703;28;20039;-74
2023/04/07 11:05:20;;;;;;;26.02;13.30;;;;;;;15.91;27.25;100665.38;4972057;28;20035;-74
2023/04/07 11:08:15;;;;;;;20.88;13.07;;;;;;;15.77;26.64;100663.06;4969785;28;20046;-73
2023/04/07 11:11:11;;;;;;;24.58;13.25;;;;;;;15.69;27.18;100662.09;4972856;28;20034;-74
2023/04/07 11:14:06;;;;;;;23.52;11.75;;;;;;;15.67;27.38;100672.59;4971285;28;20070;-74
2023/04/07 11:17:00;;;;;;;20.95;12.45;;;;;;;15.71;27.73;100661.72;4973301;28;20031;-74
2023/04/07 11:19:58;;;;;;;37.75;13.40;;;;;;;15.78;27.73;100661.94;4971703;28;20558;-74
2023/04/07 11:23:03;;;;;;;25.55;12.38;;;;;;;15.84;27.96;100660.53;4972226;28;20035;-74
2023/04/07 11:26:03;;;;;;;25.35;12.50;;;;;;;15.86;27.80;100657.41;4972827;28;20449;-74
2023/04/07 11:28:58;;;;;;;20.38;11.48;;;;;;;15.84;27.96;100655.03;4971653;28;20046;-74
2023/04/07 11:31:53;;;;;;;18.90;11.57;;;;;;;15.88;27.64;100649.66;4971440;28;20039;-75
2023/04/07 11:34:42;;;;;;;31.50;13.63;;;;;;;15.86;27.54;100651.94;4972164;28;20042;-75
2023/04/07 11:37:35;;;;;;;21.25;13.10;;;;;;;15.90;28.00;100653.63;4974899;28;20031;-75
2023/04/07 11:40:38;;;;;;;23.17;13.20;;;;;;;15.93;27.18;100649.38;4971779;28;20039;-75
2023/04/07 11:43:33;;;;;;;20.80;11.60;;;;;;;15.97;27.17;100651.06;4972523;28;20398;-75
2023/04/07 11:46:27;;;;;;;20.55;11.45;;;;;;;16.01;25.82;100649.22;4971753;28;20039;-75
2023/04/07 11:49:22;;;;;;;82.32;15.75;;;;;;;16.06;25.91;100634.44;4975143;28;20038;-75
2023/04/07 11:52:17;;;;;;;22.00;12.05;;;;;;;16.09;26.21;100633.75;4969483;28;20035;-79
2023/04/07 11:55:20;;;;;;;79.93;17.83;;;;;;;16.05;27.21;100638.34;4969374;28;20038;-79
2023/04/07 11:58:14;;;;;;;24.05;11.55;;;;;;;16.06;27.31;100629.75;4970997;28;20034;-79
2023/04/07 12:01:12;;;;;;;25.30;12.80;;;;;;;16.23;27.82;100634.88;4974505;28;20490;-78
2023/04/07 12:04:05;;;;;;;25.23;13.40;;;;;;;16.25;27.79;100635.31;4972935;28;20050;-78
2023/04/07 12:07:09;;;;;;;24.17;12.82;;;;;;;16.29;28.01;100629.94;4975510;28;20043;-79
2023/04/07 12:10:17;;;;;;;26.00;14.07;;;;;;;16.31;28.19;100633.09;4973026;28;20042;-78
2023/04/07 12:13:13;;;;;;;27.40;12.88;;;;;;;16.30;28.47;100626.03;4972908;28;20046;-78
2023/04/07 12:16:08;;;;;;;28.83;13.85;;;;;;;16.21;27.93;100625.41;4959640;28;20491;-78
2023/04/07 12:19:00;;;;;;;21.83;13.07;;;;;;;16.25;28.20;100620.81;4970341;28;20450;-79
2023/04/07 12:21:55;;;;;;;116.03;52.23;;;;;;;16.23;28.13;100623.91;4971766;28;20514;-78
2023/04/07 12:24:49;;;;;;;24.63;14.20;;;;;;;16.20;27.60;100618.34;4971006;28;20888;-78
2023/04/07 12:27:44;;;;;;;20.27;12.27;;;;;;;16.23;27.63;100618.41;4973626;28;20051;-77
2023/04/07 12:30:36;;;;;;;22.88;13.52;;;;;;;16.29;27.75;100621.69;4959395;28;20035;-78
2023/04/07 12:33:27;;;;;;;29.67;13.20;;;;;;;16.33;27.62;100625.31;4957371;28;20035;-78
2023/04/07 12:36:19;;;;;;;20.75;12.90;;;;;;;16.30;27.20;100620.53;4973213;28;20050;-77
2023/04/07 12:39:13;;;;;;;23.00;13.20;;;;;;;16.31;27.28;100613.88;4968486;28;20047;-77
2023/04/07 12:42:08;;;;;;;82.83;22.83;;;;;;;16.36;27.06;100619.09;4973861;28;20506;-77
2023/04/07 12:45:02;;;;;;;82.70;23.20;;;;;;;16.29;27.09;100618.16;4971359;28;20042;-77
2023/04/07 12:47:57;;;;;;;30.00;13.80;;;;;;;16.29;26.90;100616.19;4953484;28;20278;-77
2023/04/07 12:50:52;;;;;;;31.13;15.65;;;;;;;16.33;26.69;100611.59;4953174;28;20495;-78
2023/04/07 12:53:46;;;;;;;28.15;13.30;;;;;;;16.37;26.53;100603.44;4953197;28;20043;-77
2023/04/07 12:56:41;;;;;;;25.42;14.23;;;;;;;16.34;26.50;100604.94;4956600;28;20035;-77
2023/04/07 12:59:35;;;;;;;91.77;18.50;;;;;;;16.33;26.68;100605.31;4952884;28;20043;-77
2023/04/07 13:02:30;;;;;;;30.00;14.98;;;;;;;16.24;26.85;100595.31;4954620;28;20047;-77
2023/04/07 13:05:25;;;;;;;23.45;13.60;;;;;;;16.25;27.11;100599.63;4956975;28;20044;-77
2023/04/07 13:08:19;;;;;;;26.88;12.98;;;;;;;16.37;26.84;100587.75;4954836;28;20047;-78
2023/04/07 13:11:11;;;;;;;25.52;14.00;;;;;;;16.32;26.93;100592.72;4955175;29;20035;-78
2023/04/07 13:14:06;;;;;;;31.02;13.55;;;;;;;16.50;26.50;100593.94;4956609;28;20039;-78
2023/04/07 13:17:00;;;;;;;80.65;16.38;;;;;;;16.47;26.66;100594.66;4945807;29;20500;-78
2023/04/07 13:19:52;;;;;;;22.80;13.43;;;;;;;16.35;26.82;100587.34;4956461;28;20039;-78
2023/04/07 13:22:47;;;;;;;26.05;15.20;;;;;;;16.32;26.89;100595.47;4955000;28;20043;-78